createdAt,value
2023-05-23T00:00:10.470Z,188.29
2023-05-23T00:01:10.415Z,189.48
2023-05-23T00:02:10.468Z,189.15
2023-05-23T00:03:10.566Z,188.18
2023-05-23T00:04:10.469Z,188.07
2023-05-23T00:05:10.373Z,189.26
2023-05-23T00:06:10.351Z,189.37
2023-05-23T00:07:10.352Z,189.37
2023-05-23T00:08:10.351Z,190.36
2023-05-23T00:09:10.343Z,190.58
2023-05-23T00:10:10.317Z,189.92
2023-05-23T00:11:09.784Z,190.91
2023-05-23T00:12:10.344Z,191.25
2023-05-23T00:13:10.304Z,190.80
2023-05-23T00:14:10.311Z,190.36
2023-05-23T00:15:10.310Z,193.62
2023-05-23T00:16:10.219Z,193.39
2023-05-23T00:17:10.237Z,192.48
2023-05-23T00:18:10.209Z,192.26
2023-05-23T00:19:10.221Z,193.28
2023-05-23T00:20:10.182Z,192.93
2023-05-23T00:21:10.152Z,193.85
2023-05-23T00:22:10.128Z,194.08
2023-05-23T00:23:10.124Z,193.85
2023-05-23T00:24:10.123Z,195.35
2023-05-23T00:25:10.096Z,194.42
2023-05-23T00:26:10.094Z,194.65
2023-05-23T00:27:10.082Z,193.85
2023-05-23T00:28:10.065Z,196.05
2023-05-23T00:29:10.039Z,195.35
2023-05-23T00:30:10.032Z,195.35
2023-05-23T00:31:10.057Z,197.58
2023-05-23T00:32:10.020Z,197.35
2023-05-23T00:33:09.980Z,197.94
2023-05-23T00:34:09.972Z,197.94
2023-05-23T00:35:09.955Z,197.70
2023-05-23T00:36:09.933Z,199.38
2023-05-23T00:37:09.930Z,197.94
2023-05-23T00:38:09.922Z,198.78
2023-05-23T00:39:09.899Z,198.18
2023-05-23T00:40:09.895Z,198.42
2023-05-23T00:41:09.869Z,198.90
2023-05-23T00:42:09.870Z,198.42
2023-05-23T00:43:09.854Z,199.14
2023-05-23T00:44:09.830Z,200.73
2023-05-23T00:45:09.353Z,199.14
2023-05-23T00:46:09.858Z,200.11
2023-05-23T00:47:09.828Z,200.48
2023-05-23T00:48:09.786Z,200.85
2023-05-23T00:49:09.766Z,201.22
2023-05-23T00:50:09.763Z,201.22
2023-05-23T00:51:09.770Z,201.09
2023-05-23T00:52:09.721Z,201.34
2023-05-23T00:53:09.725Z,201.22
2023-05-23T00:54:09.697Z,202.46
2023-05-23T00:55:09.679Z,202.09
2023-05-23T00:56:09.683Z,201.71
2023-05-23T00:57:09.652Z,202.96
2023-05-23T00:58:09.635Z,202.58
2023-05-23T00:59:09.627Z,201.59
2023-05-23T01:00:09.605Z,202.21
2023-05-23T01:01:09.619Z,202.33
2023-05-23T01:02:09.625Z,203.09
2023-05-23T01:03:09.676Z,203.84
2023-05-23T01:04:09.683Z,204.48
2023-05-23T01:05:09.556Z,203.34
2023-05-23T01:06:09.528Z,203.72
2023-05-23T01:07:09.512Z,204.48
2023-05-23T01:08:09.502Z,204.61
2023-05-23T01:09:09.498Z,204.99
2023-05-23T01:10:09.478Z,205.63
2023-05-23T01:11:09.453Z,205.63
2023-05-23T01:12:09.446Z,206.28
2023-05-23T01:13:09.425Z,206.67
2023-05-23T01:14:09.430Z,206.02
2023-05-23T01:15:09.417Z,206.54
2023-05-23T01:16:09.409Z,206.93
2023-05-23T01:17:08.811Z,207.19
2023-05-23T01:18:09.386Z,207.19
2023-05-23T01:19:09.398Z,208.11
2023-05-23T01:20:09.337Z,208.37
2023-05-23T01:21:09.320Z,208.11
2023-05-23T01:22:09.302Z,208.64
2023-05-23T01:23:09.337Z,208.64
2023-05-23T01:24:09.283Z,209.17
2023-05-23T01:25:09.260Z,209.44
2023-05-23T01:26:09.261Z,209.84
2023-05-23T01:27:09.243Z,210.38
2023-05-23T01:28:09.235Z,210.65
2023-05-23T01:29:09.219Z,210.38
2023-05-23T01:30:09.183Z,210.92
2023-05-23T01:31:09.187Z,211.74
2023-05-23T01:32:09.299Z,211.46
2023-05-23T01:33:09.288Z,211.74
2023-05-23T01:34:09.128Z,211.60
2023-05-23T01:35:09.110Z,212.01
2023-05-23T01:36:09.116Z,212.28
2023-05-23T01:37:09.098Z,212.70
2023-05-23T01:38:09.100Z,212.56
2023-05-23T01:39:09.061Z,213.11
2023-05-23T01:40:09.044Z,212.97
2023-05-23T01:41:09.040Z,212.56
2023-05-23T01:42:09.044Z,212.97
2023-05-23T01:43:09.020Z,212.56
2023-05-23T01:44:09.019Z,212.70
2023-05-23T01:45:08.975Z,212.97
2023-05-23T01:46:09.014Z,213.11
2023-05-23T01:47:08.970Z,212.70
2023-05-23T01:48:08.980Z,213.11
2023-05-23T01:49:08.927Z,212.28
2023-05-23T01:50:08.907Z,213.25
2023-05-23T01:51:08.896Z,213.39
2023-05-23T01:52:08.906Z,213.94
2023-05-23T01:53:08.881Z,213.39
2023-05-23T01:54:08.864Z,214.36
2023-05-23T01:55:08.877Z,214.22
2023-05-23T01:56:08.820Z,214.08
2023-05-23T01:57:08.816Z,214.93
2023-05-23T01:58:08.809Z,214.08
2023-05-23T01:59:08.790Z,214.50
2023-05-23T02:00:08.801Z,215.21
2023-05-23T02:01:08.850Z,214.93
2023-05-23T02:02:08.788Z,214.93
2023-05-23T02:03:08.804Z,215.63
2023-05-23T02:04:08.725Z,216.20
2023-05-23T02:05:08.732Z,216.20
2023-05-23T02:06:08.709Z,216.20
2023-05-23T02:07:08.729Z,216.91
2023-05-23T02:08:08.698Z,217.49
2023-05-23T02:09:08.649Z,217.63
2023-05-23T02:10:08.647Z,217.63
2023-05-23T02:11:08.641Z,217.63
2023-05-23T02:12:08.617Z,217.78
2023-05-23T02:13:08.603Z,219.23
2023-05-23T02:14:08.584Z,219.09
2023-05-23T02:15:08.611Z,220.41
2023-05-23T02:16:08.582Z,219.38
2023-05-23T02:17:08.601Z,220.12
2023-05-23T02:18:08.631Z,221.45
2023-05-23T02:19:08.698Z,221.15
2023-05-23T02:20:08.539Z,221.30
2023-05-23T02:21:08.506Z,222.20
2023-05-23T02:22:08.489Z,222.35
2023-05-23T02:23:08.490Z,222.50
2023-05-23T02:24:08.468Z,222.50
2023-05-23T02:25:08.461Z,222.96
2023-05-23T02:26:08.433Z,222.50
2023-05-23T02:27:08.428Z,222.50
2023-05-23T02:28:08.410Z,221.60
2023-05-23T02:29:08.412Z,221.30
2023-05-23T02:30:07.913Z,221.75
2023-05-23T02:31:08.437Z,221.45
2023-05-23T02:32:08.390Z,220.71
2023-05-23T02:33:08.405Z,220.71
2023-05-23T02:34:08.337Z,220.56
2023-05-23T02:35:08.338Z,220.41
2023-05-23T02:36:08.281Z,220.41
2023-05-23T02:37:08.281Z,220.71
2023-05-23T02:38:08.280Z,220.26
2023-05-23T02:39:08.284Z,220.41
2023-05-23T02:40:08.240Z,220.56
2023-05-23T02:41:08.226Z,219.82
2023-05-23T02:42:08.226Z,220.26
2023-05-23T02:43:08.193Z,220.12
2023-05-23T02:44:08.203Z,220.41
2023-05-23T02:45:08.159Z,219.97
2023-05-23T02:46:08.177Z,220.56
2023-05-23T02:47:08.149Z,219.97
2023-05-23T02:48:08.318Z,220.86
2023-05-23T02:49:08.121Z,220.56
2023-05-23T02:50:08.105Z,221.30
2023-05-23T02:51:08.089Z,221.01
2023-05-23T02:52:08.070Z,221.45
2023-05-23T02:53:08.096Z,221.60
2023-05-23T02:54:08.048Z,222.05
2023-05-23T02:55:08.050Z,222.65
2023-05-23T02:56:08.021Z,222.96
2023-05-23T02:57:08.008Z,223.26
2023-05-23T02:58:07.995Z,223.72
2023-05-23T02:59:07.977Z,224.18
2023-05-23T03:00:07.958Z,224.33
2023-05-23T03:01:08.291Z,223.72
2023-05-23T03:02:08.094Z,224.48
2023-05-23T03:03:08.024Z,223.72
2023-05-23T03:04:07.963Z,224.18
2023-05-23T03:05:07.972Z,224.33
2023-05-23T03:06:07.950Z,225.10
2023-05-23T03:07:11.643Z,224.79
2023-05-23T03:08:08.909Z,226.34
2023-05-23T03:09:06.081Z,226.34
2023-05-23T03:10:06.085Z,225.87
2023-05-23T03:11:06.021Z,226.03
2023-05-23T03:12:06.024Z,226.65
2023-05-23T03:13:06.109Z,226.50
2023-05-23T03:14:06.111Z,228.07
2023-05-23T03:15:07.434Z,227.12
2023-05-23T03:16:06.037Z,227.28
2023-05-23T03:17:05.933Z,229.19
2023-05-23T03:18:05.997Z,229.03
2023-05-23T03:19:05.997Z,227.28
2023-05-23T03:20:07.896Z,228.71
2023-05-23T03:21:05.895Z,228.23
2023-05-23T03:22:07.831Z,229.19
2023-05-23T03:23:07.823Z,228.71
2023-05-23T03:24:07.791Z,229.83
2023-05-23T03:25:05.924Z,229.99
2023-05-23T03:26:05.819Z,229.35
2023-05-23T03:27:05.987Z,229.51
2023-05-23T03:28:07.242Z,230.48
2023-05-23T03:29:06.004Z,230.48
2023-05-23T03:30:07.793Z,230.80
2023-05-23T03:31:07.217Z,230.80
2023-05-23T03:32:07.779Z,232.27
2023-05-23T03:33:05.799Z,229.67
2023-05-23T03:34:07.164Z,231.61
2023-05-23T03:35:07.159Z,231.78
2023-05-23T03:36:07.121Z,230.96
2023-05-23T03:37:07.138Z,231.61
2023-05-23T03:38:07.125Z,232.43
2023-05-23T03:39:05.862Z,232.76
2023-05-23T03:40:07.082Z,232.60
2023-05-23T03:41:05.622Z,232.43
2023-05-23T03:42:07.049Z,233.10
2023-05-23T03:43:07.072Z,232.60
2023-05-23T03:44:05.625Z,234.93
2023-05-23T03:45:07.013Z,233.26
2023-05-23T03:46:05.618Z,232.43
2023-05-23T03:47:05.544Z,233.10
2023-05-23T03:48:07.531Z,232.43
2023-05-23T03:49:05.635Z,233.10
2023-05-23T03:50:05.620Z,233.43
2023-05-23T03:51:05.645Z,234.09
2023-05-23T03:52:05.553Z,233.43
2023-05-23T03:53:06.915Z,234.26
2023-05-23T03:54:05.568Z,234.60
2023-05-23T03:55:05.605Z,233.93
2023-05-23T03:56:07.365Z,234.26
2023-05-23T03:57:05.580Z,233.93
2023-05-23T03:58:06.837Z,235.77
2023-05-23T03:59:06.821Z,234.43
2023-05-23T04:00:05.372Z,235.60
2023-05-23T04:01:06.778Z,236.62
2023-05-23T04:02:05.354Z,236.11
2023-05-23T04:03:05.564Z,236.11
2023-05-23T04:04:07.303Z,235.77
2023-05-23T04:05:05.403Z,236.80
2023-05-23T04:06:07.214Z,237.48
2023-05-23T04:07:05.252Z,236.80
2023-05-23T04:08:05.388Z,237.48
2023-05-23T04:09:06.695Z,236.62
2023-05-23T04:10:05.273Z,237.14
2023-05-23T04:11:05.346Z,236.62
2023-05-23T04:12:06.653Z,236.62
2023-05-23T04:13:05.402Z,236.97
2023-05-23T04:14:06.604Z,237.14
2023-05-23T04:15:06.612Z,237.31
2023-05-23T04:16:05.426Z,236.62
2023-05-23T04:17:06.598Z,236.80
2023-05-23T04:18:05.249Z,234.93
2023-05-23T04:19:06.650Z,235.77
2023-05-23T04:20:06.590Z,236.45
2023-05-23T04:21:05.158Z,235.60
2023-05-23T04:22:06.885Z,235.10
2023-05-23T04:23:06.862Z,234.43
2023-05-23T04:24:06.860Z,235.60
2023-05-23T04:25:06.894Z,236.11
2023-05-23T04:26:06.795Z,234.09
2023-05-23T04:27:06.801Z,233.93
2023-05-23T04:28:06.780Z,235.27
2023-05-23T04:29:06.848Z,234.93
2023-05-23T04:30:06.758Z,234.09
2023-05-23T04:31:06.814Z,234.43
2023-05-23T04:32:06.733Z,232.10
2023-05-23T04:33:06.742Z,233.10
2023-05-23T04:34:06.705Z,231.61
2023-05-23T04:35:06.680Z,231.94
2023-05-23T04:36:06.685Z,232.10
2023-05-23T04:37:06.667Z,231.78
2023-05-23T04:38:06.657Z,231.94
2023-05-23T04:39:06.634Z,231.12
2023-05-23T04:40:06.640Z,232.10
2023-05-23T04:41:06.664Z,231.94
2023-05-23T04:42:06.596Z,230.64
2023-05-23T04:43:06.584Z,230.48
2023-05-23T04:44:06.606Z,230.48
2023-05-23T04:45:06.541Z,230.15
2023-05-23T04:46:06.542Z,229.19
2023-05-23T04:47:06.591Z,229.51
2023-05-23T04:48:06.595Z,228.23
2023-05-23T04:49:06.033Z,228.07
2023-05-23T04:50:06.518Z,228.07
2023-05-23T04:51:06.480Z,227.76
2023-05-23T04:52:06.456Z,226.81
2023-05-23T04:53:06.429Z,225.72
2023-05-23T04:54:06.453Z,225.41
2023-05-23T04:55:05.929Z,225.41
2023-05-23T04:56:06.399Z,224.48
2023-05-23T04:57:06.399Z,224.33
2023-05-23T04:58:06.368Z,224.02
2023-05-23T04:59:06.362Z,222.50
2023-05-23T05:00:06.357Z,222.20
2023-05-23T05:01:06.382Z,221.60
2023-05-23T05:02:06.300Z,220.41
2023-05-23T05:03:06.348Z,218.94
2023-05-23T05:04:06.301Z,219.67
2023-05-23T05:05:06.276Z,219.38
2023-05-23T05:06:06.239Z,218.94
2023-05-23T05:07:06.248Z,216.77
2023-05-23T05:08:06.228Z,217.35
2023-05-23T05:09:06.210Z,214.08
2023-05-23T05:10:06.221Z,215.49
2023-05-23T05:11:06.182Z,211.74
2023-05-23T05:12:06.179Z,212.56
2023-05-23T05:13:06.162Z,211.87
2023-05-23T05:14:06.157Z,210.11
2023-05-23T05:15:06.134Z,207.45
2023-05-23T05:16:06.117Z,206.41
2023-05-23T05:17:06.148Z,204.73
2023-05-23T05:18:06.108Z,204.22
2023-05-23T05:19:06.126Z,199.99
2023-05-23T05:20:06.073Z,199.99
2023-05-23T05:21:06.047Z,200.11
2023-05-23T05:22:06.029Z,196.40
2023-05-23T05:23:06.003Z,196.52
2023-05-23T05:24:06.008Z,194.19
2023-05-23T05:25:05.993Z,192.71
2023-05-23T05:26:05.964Z,191.47
2023-05-23T05:27:05.952Z,188.07
2023-05-23T05:28:05.993Z,187.32
2023-05-23T05:29:06.008Z,186.89
2023-05-23T05:30:05.927Z,185.83
2023-05-23T05:31:05.944Z,186.45
2023-05-23T05:32:05.879Z,183.99
2023-05-23T05:33:05.899Z,183.58
2023-05-23T05:34:05.401Z,181.98
2023-05-23T05:35:05.871Z,181.39
2023-05-23T05:36:05.996Z,180.40
2023-05-23T05:37:05.836Z,178.86
2023-05-23T05:38:05.832Z,176.21
2023-05-23T05:39:05.817Z,176.59
2023-05-23T05:40:05.805Z,175.84
2023-05-23T05:41:08.033Z,175.10
2023-05-23T05:42:05.762Z,174.19
2023-05-23T05:43:05.750Z,173.83
2023-05-23T05:44:05.748Z,172.93
2023-05-23T05:45:05.813Z,173.47
2023-05-23T05:46:05.767Z,171.68
2023-05-23T05:47:05.702Z,172.04
2023-05-23T05:48:05.777Z,171.51
2023-05-23T05:49:05.694Z,171.15
2023-05-23T05:50:05.647Z,170.28
2023-05-23T05:51:05.645Z,168.39
2023-05-23T05:52:05.640Z,167.71
2023-05-23T05:53:05.627Z,167.54
2023-05-23T05:54:05.600Z,166.38
2023-05-23T05:55:05.567Z,165.22
2023-05-23T05:56:05.582Z,164.25
2023-05-23T05:57:05.578Z,162.96
2023-05-23T05:58:05.539Z,161.70
2023-05-23T05:59:05.533Z,161.08
2023-05-23T06:00:05.518Z,159.54
2023-05-23T06:01:05.520Z,158.48
2023-05-23T06:02:05.513Z,157.43
2023-05-23T06:03:05.581Z,156.69
2023-05-23T06:04:05.594Z,154.51
2023-05-23T06:05:05.477Z,153.52
2023-05-23T06:06:05.446Z,152.54
2023-05-23T06:07:05.417Z,151.84
2023-05-23T06:08:05.416Z,150.34
2023-05-23T06:09:05.397Z,148.60
2023-05-23T06:10:05.396Z,147.42
2023-05-23T06:11:05.376Z,146.64
2023-05-23T06:12:05.347Z,145.74
2023-05-23T06:13:05.335Z,143.24
2023-05-23T06:14:05.314Z,141.42
2023-05-23T06:15:05.328Z,139.53
2023-05-23T06:16:05.349Z,137.69
2023-05-23T06:17:04.788Z,135.89
2023-05-23T06:18:05.358Z,134.68
2023-05-23T06:19:05.283Z,132.44
2023-05-23T06:20:05.256Z,130.07
2023-05-23T06:21:05.228Z,128.96
2023-05-23T06:22:05.211Z,126.61
2023-05-23T06:23:05.203Z,124.16
2023-05-23T06:24:05.191Z,121.54
2023-05-23T06:25:05.191Z,119.37
2023-05-23T06:26:05.158Z,116.29
2023-05-23T06:27:05.142Z,114.61
2023-05-23T06:28:05.159Z,112.15
2023-05-23T06:29:05.113Z,110.08
2023-05-23T06:30:05.121Z,107.45
2023-05-23T06:31:05.110Z,105.68
2023-05-23T06:32:05.142Z,104.89
2023-05-23T06:33:05.166Z,102.82
2023-05-23T06:34:05.050Z,103.46
2023-05-23T06:35:04.551Z,102.32
2023-05-23T06:36:05.023Z,102.38
2023-05-23T06:37:05.012Z,101.26
2023-05-23T06:38:05.002Z,100.53
2023-05-23T06:39:04.991Z,100.41
2023-05-23T06:40:04.979Z,98.45
2023-05-23T06:41:04.956Z,98.98
2023-05-23T06:42:04.962Z,98.80
2023-05-23T06:43:04.919Z,98.98
2023-05-23T06:44:04.910Z,98.28
2023-05-23T06:45:04.894Z,97.53
2023-05-23T06:46:04.975Z,96.74
2023-05-23T06:47:04.863Z,97.08
2023-05-23T06:48:04.947Z,97.19
2023-05-23T06:49:14.271Z,97.19
2023-05-23T06:50:05.864Z,97.42
2023-05-23T06:51:04.817Z,96.46
2023-05-23T06:52:04.798Z,97.47
2023-05-23T06:53:04.790Z,96.68
2023-05-23T06:54:04.785Z,96.40
2023-05-23T06:55:04.769Z,96.40
2023-05-23T06:56:04.753Z,97.02
2023-05-23T06:57:04.731Z,96.74
2023-05-23T06:58:04.557Z,96.35
2023-05-23T06:59:04.704Z,96.51
2023-05-23T07:00:04.682Z,96.40
2023-05-23T07:01:04.705Z,96.29
2023-05-23T07:02:04.664Z,96.85
2023-05-23T07:03:04.762Z,97.30
2023-05-23T07:04:04.632Z,97.36
2023-05-23T07:05:04.658Z,97.82
2023-05-23T07:06:04.604Z,98.68
2023-05-23T07:07:04.617Z,98.51
2023-05-23T07:08:04.590Z,99.33
2023-05-23T07:09:04.581Z,99.63
2023-05-23T07:10:04.541Z,99.21
2023-05-23T07:11:04.546Z,100.71
2023-05-23T07:12:04.541Z,101.20
2023-05-23T07:13:04.502Z,102.63
2023-05-23T07:14:04.520Z,102.13
2023-05-23T07:15:04.477Z,102.95
2023-05-23T07:16:04.470Z,103.84
2023-05-23T07:17:04.508Z,104.36
2023-05-23T07:18:04.553Z,105.68
2023-05-23T07:19:04.446Z,106.15
2023-05-23T07:20:04.409Z,106.90
2023-05-23T07:21:04.410Z,108.08
2023-05-23T07:22:04.423Z,108.08
2023-05-23T07:23:04.367Z,108.78
2023-05-23T07:24:04.349Z,108.71
2023-05-23T07:25:04.330Z,108.57
2023-05-23T07:26:04.333Z,108.64
2023-05-23T07:27:04.314Z,109.93
2023-05-23T07:28:04.300Z,110.00
2023-05-23T07:29:04.284Z,110.44
2023-05-23T07:30:04.265Z,109.50
2023-05-23T07:31:04.347Z,109.64
2023-05-23T07:32:04.256Z,109.43
2023-05-23T07:33:04.281Z,109.36
2023-05-23T07:34:04.225Z,111.03
2023-05-23T07:35:04.205Z,112.45
2023-05-23T07:36:04.210Z,113.68
2023-05-23T07:37:04.182Z,114.46
2023-05-23T07:38:04.300Z,115.64
2023-05-23T07:39:04.149Z,117.68
2023-05-23T07:40:04.143Z,117.11
2023-05-23T07:41:11.661Z,118.77
2023-05-23T07:42:05.096Z,120.57
2023-05-23T07:43:04.087Z,123.15
2023-05-23T07:44:04.113Z,124.72
2023-05-23T07:45:04.092Z,126.13
2023-05-23T07:46:04.076Z,126.71
2023-05-23T07:47:04.090Z,127.87
2023-05-23T07:48:04.049Z,128.56
2023-05-23T07:49:03.990Z,130.17
2023-05-23T07:50:04.003Z,130.07
2023-05-23T07:51:04.035Z,130.17
2023-05-23T07:52:03.959Z,130.17
2023-05-23T07:53:03.973Z,132.23
2023-05-23T07:54:03.934Z,133.18
2023-05-23T07:55:03.939Z,134.14
2023-05-23T07:56:03.913Z,135.89
2023-05-23T07:57:03.897Z,137.35
2023-05-23T07:58:03.868Z,136.67
2023-05-23T07:59:03.873Z,137.12
2023-05-23T08:00:03.854Z,137.69
2023-05-23T08:01:03.837Z,139.18
2023-05-23T08:02:03.836Z,140.59
2023-05-23T08:03:03.872Z,142.63
2023-05-23T08:04:03.944Z,145.11
2023-05-23T08:05:03.789Z,146.90
2023-05-23T08:06:03.775Z,148.73
2023-05-23T08:07:05.830Z,148.60
2023-05-23T08:08:03.744Z,150.20
2023-05-23T08:09:03.753Z,151.43
2023-05-23T08:10:03.259Z,152.68
2023-05-23T08:11:03.798Z,153.10
2023-05-23T08:12:03.685Z,154.09
2023-05-23T08:13:06.049Z,154.23
2023-05-23T08:14:03.697Z,156.54
2023-05-23T08:15:03.677Z,158.93
2023-05-23T08:16:04.370Z,162.33
2023-05-23T08:17:03.721Z,163.76
2023-05-23T08:18:03.758Z,162.80
2023-05-23T08:19:03.231Z,165.22
2023-05-23T08:20:03.580Z,165.55
2023-05-23T08:21:03.170Z,166.88
2023-05-23T08:22:01.666Z,169.93
2023-05-23T08:23:03.555Z,171.51
2023-05-23T08:24:03.554Z,172.21
2023-05-23T08:25:03.518Z,171.15
2023-05-23T08:26:03.494Z,170.63
2023-05-23T08:27:03.497Z,173.11
2023-05-23T08:28:03.536Z,173.29
2023-05-23T08:29:03.456Z,172.93
2023-05-23T08:30:03.462Z,172.39
2023-05-23T08:31:03.434Z,172.04
2023-05-23T08:32:03.463Z,174.01
2023-05-23T08:33:03.540Z,176.59
2023-05-23T08:34:03.420Z,179.43
2023-05-23T08:35:03.402Z,178.29
2023-05-23T08:36:03.372Z,184.80
2023-05-23T08:37:03.365Z,186.15
2023-05-23T08:38:03.334Z,187.96
2023-05-23T08:39:03.322Z,186.68
2023-05-23T08:40:03.319Z,187.85
2023-05-23T08:41:03.302Z,190.80
2023-05-23T08:42:03.326Z,192.15
2023-05-23T08:43:03.320Z,193.62
2023-05-23T08:44:03.239Z,194.42
2023-05-23T08:45:03.242Z,194.77
2023-05-23T08:46:03.260Z,194.19
2023-05-23T08:47:03.208Z,191.92
2023-05-23T08:48:03.208Z,191.47
2023-05-23T08:49:02.734Z,192.82
2023-05-23T08:50:03.161Z,191.25
2023-05-23T08:51:03.172Z,195.70
2023-05-23T08:52:03.128Z,197.82
2023-05-23T08:53:03.173Z,201.22
2023-05-23T08:54:03.115Z,203.34
2023-05-23T08:55:03.089Z,207.19
2023-05-23T08:56:03.107Z,207.45
2023-05-23T08:57:03.066Z,209.04
2023-05-23T08:58:03.045Z,211.60
2023-05-23T08:59:03.067Z,216.34
2023-05-23T09:00:04.241Z,214.93
2023-05-23T09:01:03.024Z,216.34
2023-05-23T09:02:03.046Z,219.38
2023-05-23T09:03:03.044Z,219.23
2023-05-23T09:04:03.000Z,218.21
2023-05-23T09:05:03.011Z,220.56
2023-05-23T09:06:02.979Z,220.12
2023-05-23T09:07:02.953Z,224.33
2023-05-23T09:08:01.044Z,231.45
2023-05-23T09:09:02.910Z,232.76
2023-05-23T09:10:02.911Z,229.99
2023-05-23T09:11:02.921Z,233.93
2023-05-23T09:12:02.872Z,235.10
2023-05-23T09:13:02.862Z,239.39
2023-05-23T09:14:02.849Z,242.21
2023-05-23T09:15:01.885Z,245.66
2023-05-23T09:16:02.864Z,246.77
2023-05-23T09:17:04.561Z,246.58
2023-05-23T09:18:02.844Z,252.27
2023-05-23T09:19:02.782Z,254.42
2023-05-23T09:20:02.778Z,258.02
2023-05-23T09:21:02.739Z,261.73
2023-05-23T09:22:02.806Z,261.73
2023-05-23T09:23:03.797Z,262.78
2023-05-23T09:24:02.714Z,268.14
2023-05-23T09:25:02.722Z,274.42
2023-05-23T09:26:02.688Z,274.65
2023-05-23T09:27:02.661Z,278.86
2023-05-23T09:28:02.670Z,282.46
2023-05-23T09:29:02.645Z,283.19
2023-05-23T09:30:02.613Z,282.21
2023-05-23T09:31:02.605Z,285.16
2023-05-23T09:32:02.636Z,281.49
2023-05-23T09:33:05.528Z,280.05
2023-05-23T09:34:02.708Z,277.91
2023-05-23T09:35:02.643Z,278.86
2023-05-23T09:36:02.554Z,281.49
2023-05-23T09:37:02.531Z,286.90
2023-05-23T09:38:02.537Z,289.18
2023-05-23T09:39:03.282Z,300.57
2023-05-23T09:40:02.534Z,303.91
2023-05-23T09:41:02.483Z,305.32
2023-05-23T09:42:02.495Z,310.23
2023-05-23T09:43:02.467Z,318.67
2023-05-23T09:44:02.448Z,327.25
2023-05-23T09:45:04.134Z,330.55
2023-05-23T09:46:02.405Z,331.55
2023-05-23T09:47:02.438Z,334.25
2023-05-23T09:48:02.455Z,335.96
2023-05-23T09:49:02.417Z,338.39
2023-05-23T09:50:02.351Z,335.62
2023-05-23T09:51:03.576Z,338.73
2023-05-23T09:52:02.341Z,335.62
2023-05-23T09:53:02.363Z,338.04
2023-05-23T09:54:02.306Z,338.39
2023-05-23T09:55:02.276Z,339.44
2023-05-23T09:56:02.261Z,340.14
2023-05-23T09:57:02.328Z,343.34
2023-05-23T09:58:02.255Z,342.63
2023-05-23T09:59:02.254Z,341.20
2023-05-23T10:00:02.278Z,342.98
2023-05-23T10:01:02.260Z,345.15
2023-05-23T10:02:02.209Z,350.68
2023-05-23T10:03:02.173Z,354.47
2023-05-23T10:04:02.188Z,352.95
2023-05-23T10:05:02.150Z,349.56
2023-05-23T10:06:02.158Z,349.19
2023-05-23T10:07:02.147Z,353.33
2023-05-23T10:08:02.105Z,353.71
2023-05-23T10:09:02.095Z,352.57
2023-05-23T10:10:02.084Z,351.81
2023-05-23T10:11:02.077Z,351.81
2023-05-23T10:12:02.056Z,351.06
2023-05-23T10:13:02.043Z,350.68
2023-05-23T10:14:02.017Z,354.85
2023-05-23T10:15:02.009Z,349.93
2023-05-23T10:16:02.003Z,347.71
2023-05-23T10:17:02.035Z,345.88
2023-05-23T10:18:01.999Z,345.88
2023-05-23T10:19:01.998Z,349.93
2023-05-23T10:20:01.953Z,345.88
2023-05-23T10:21:01.936Z,349.19
2023-05-23T10:22:01.925Z,352.95
2023-05-23T10:23:01.906Z,350.68
2023-05-23T10:24:02.451Z,348.82
2023-05-23T10:25:01.903Z,349.19
2023-05-23T10:26:01.848Z,345.15
2023-05-23T10:27:01.838Z,348.08
2023-05-23T10:28:04.144Z,352.95
2023-05-23T10:29:01.827Z,350.68
2023-05-23T10:30:01.846Z,350.68
2023-05-23T10:31:01.803Z,354.09
2023-05-23T10:32:01.769Z,354.09
2023-05-23T10:33:01.826Z,354.85
2023-05-23T10:34:01.754Z,349.93
2023-05-23T10:35:01.742Z,351.43
2023-05-23T10:36:01.737Z,350.31
2023-05-23T10:37:01.684Z,349.93
2023-05-23T10:38:01.679Z,353.33
2023-05-23T10:39:01.682Z,349.93
2023-05-23T10:40:01.712Z,341.91
2023-05-23T10:41:01.645Z,338.73
2023-05-23T10:42:01.619Z,342.63
2023-05-23T10:43:01.614Z,339.08
2023-05-23T10:44:01.621Z,334.93
2023-05-23T10:45:01.618Z,339.08
2023-05-23T10:46:01.665Z,335.62
2023-05-23T10:47:01.622Z,338.04
2023-05-23T10:48:01.585Z,346.61
2023-05-23T10:49:01.548Z,351.81
2023-05-23T10:50:01.509Z,356.78
2023-05-23T10:51:01.490Z,355.62
2023-05-23T10:52:01.473Z,359.13
2023-05-23T10:53:01.502Z,357.56
2023-05-23T10:54:01.452Z,360.31
2023-05-23T10:55:01.439Z,359.52
2023-05-23T10:56:01.432Z,359.13
2023-05-23T10:57:01.450Z,363.50
2023-05-23T10:58:01.426Z,371.32
2023-05-23T10:59:01.385Z,376.43
2023-05-23T11:00:01.369Z,377.73
2023-05-23T11:01:01.348Z,375.14
2023-05-23T11:03:01.393Z,383.68
2023-05-23T11:04:01.395Z,393.64
2023-05-23T11:05:01.305Z,399.06
2023-05-23T11:06:01.288Z,403.16
2023-05-23T11:07:01.305Z,408.85
2023-05-23T11:08:01.262Z,411.12
2023-05-23T11:09:01.261Z,417.82
2023-05-23T11:10:01.236Z,423.39
2023-05-23T11:11:01.247Z,429.38
2023-05-23T11:12:01.235Z,438.13
2023-05-23T11:13:01.205Z,443.08
2023-05-23T11:14:01.177Z,450.26
2023-05-23T11:15:01.174Z,456.42
2023-05-23T11:16:01.234Z,458.93
2023-05-23T11:17:01.154Z,462.76
2023-05-23T11:18:01.176Z,466.97
2023-05-23T11:19:01.153Z,472.26
2023-05-23T11:20:01.102Z,467.30
2023-05-23T11:21:01.102Z,469.93
2023-05-23T11:22:01.097Z,467.62
2023-05-23T11:23:01.058Z,471.93
2023-05-23T11:24:01.060Z,476.65
2023-05-23T11:25:01.110Z,473.60
2023-05-23T11:26:01.031Z,473.27
2023-05-23T11:27:01.018Z,474.28
2023-05-23T11:28:00.994Z,472.93
2023-05-23T11:29:01.012Z,472.93
2023-05-23T11:30:00.985Z,475.63
2023-05-23T11:31:00.954Z,480.77
2023-05-23T11:32:00.979Z,483.56
2023-05-23T11:33:01.001Z,480.43
2023-05-23T11:34:00.925Z,483.21
2023-05-23T11:35:00.910Z,485.68
2023-05-23T11:36:00.896Z,486.39
2023-05-23T11:37:00.868Z,493.95
2023-05-23T11:38:00.865Z,494.68
2023-05-23T11:39:00.839Z,492.86
2023-05-23T11:40:00.867Z,497.64
2023-05-23T11:41:00.827Z,495.05
2023-05-23T11:42:00.822Z,491.77
2023-05-23T11:43:00.806Z,498.38
2023-05-23T11:44:00.785Z,506.33
2023-05-23T11:45:00.786Z,508.64
2023-05-23T11:46:00.805Z,512.95
2023-05-23T11:47:00.764Z,516.92
2023-05-23T11:48:00.780Z,518.13
2023-05-23T11:49:00.741Z,513.34
2023-05-23T11:50:00.709Z,512.95
2023-05-23T11:51:00.693Z,504.79
2023-05-23T11:52:00.684Z,495.79
2023-05-23T11:53:00.651Z,485.68
2023-05-23T11:54:00.651Z,489.96
2023-05-23T11:56:00.781Z,502.89
2023-05-23T11:57:00.594Z,498.38
2023-05-23T11:58:00.589Z,498.01
2023-05-23T11:59:00.584Z,505.94
2023-05-23T12:00:00.591Z,513.74
2023-05-23T12:01:00.545Z,515.73
2023-05-23T12:02:00.545Z,514.93
2023-05-23T12:03:00.602Z,519.74
2023-05-23T12:04:00.649Z,523.42
2023-05-23T12:05:00.561Z,531.34
2023-05-23T12:06:00.473Z,533.47
2023-05-23T12:07:00.490Z,529.65
2023-05-23T12:08:00.469Z,529.23
2023-05-23T12:09:00.435Z,527.56
2023-05-23T12:10:00.414Z,532.61
2023-05-23T12:11:00.401Z,532.61
2023-05-23T12:12:00.385Z,530.92
2023-05-23T12:13:00.389Z,531.34
2023-05-23T12:14:00.376Z,532.61
2023-05-23T12:15:00.361Z,528.81
2023-05-23T12:16:00.487Z,533.04
2023-05-23T12:17:00.326Z,533.04
2023-05-23T12:18:00.364Z,530.07
2023-05-23T12:19:00.292Z,527.14
2023-05-23T12:20:00.316Z,530.92
2023-05-23T12:21:00.259Z,527.56
2023-05-23T12:22:00.272Z,534.75
2023-05-23T12:23:00.235Z,533.47
2023-05-23T12:24:00.226Z,534.32
2023-05-23T12:25:00.249Z,533.47
2023-05-23T12:26:00.199Z,533.04
2023-05-23T12:27:00.224Z,541.26
2023-05-23T12:28:00.179Z,543.02
2023-05-23T12:29:00.205Z,542.14
2023-05-23T12:30:00.199Z,536.47
2023-05-23T12:31:00.185Z,534.75